McNutt, Louisiana
Current Conditions -  °F | °C
As of 5:53 PM on Saturday 22 Nov 2014 (Local Time) from KAEX Reporting Station
Overcast Overcast  
Wind Chill: 19°   Ceiling: 3100
Heat Index: 19°   Visibility: 10mi
Dew Point: 15°   Wind: 16mph
Humidity: 76%   Direction: 110°ESE
Pressure: 29.93"   Gusts: NA
Location:  31.3168°N, 92.7338°W
Report Text: KAEX 222353Z 11014KT 10SM OVC031 19/15 A2993 RMK AO2 SLP139 T01940150 10217 20189 58016
Loading
Personal Weather Stations






























Interactive Weather Map New forecast layout! Learn more

10-Day Weather Forecast

Advertisements
Track Severe Weather on mobile